Time,TemperatureF,DewpointF,PressureIn,WindDirection,WindDirectionDegrees,WindSpeedMPH,WindSpeedGustMPH,Humidity,HourlyPrecipIn,Conditions,Clouds,dailyrainin,SoftwareType,DateUTC
2013-01-13 00:03:00,7.9,-6.9,30.05,WSW,253,14.5,14.5,50,0.00,,SKC,0.00,VWS V14.01,2013-01-13 06:03:00,
2013-01-13 00:08:00,7.7,-7.1,30.05,WNW,299,7.2,7.2,50,0.00,,SKC,0.00,VWS V14.01,2013-01-13 06:08:00,
2013-01-13 00:13:00,7.5,-7.2,30.05,NNW,328,6.4,9.7,50,0.00,,SKC,0.00,VWS V14.01,2013-01-13 06:13:00,
2013-01-13 00:18:00,7.3,-7.4,30.05,NNW,332,5.6,6.4,50,0.00,,SKC,0.00,VWS V14.01,2013-01-13 06:18:00,
2013-01-13 00:23:00,7.2,-7.6,30.05,NW,314,15.7,15.7,50,0.00,,SKC,0.00,VWS V14.01,2013-01-13 06:23:00,
2013-01-13 00:28:00,7.2,-7.6,30.05,NW,325,11.3,15.7,50,0.00,,SKC,0.00,VWS V14.01,2013-01-13 06:28:00,
2013-01-13 00:33:00,7.2,-7.6,30.05,WNW,303,12.1,12.1,50,0.00,,SKC,0.00,VWS V14.01,2013-01-13 06:33:00,
2013-01-13 00:38:00,7.2,-7.6,30.02,NW,319,13.7,13.7,50,0.00,,SKC,0.00,VWS V14.01,2013-01-13 06:38:00,
2013-01-13 00:43:00,7.2,-7.6,30.02,NW,316,11.3,11.3,50,0.00,,SKC,0.00,VWS V14.01,2013-01-13 06:43:00,
2013-01-13 00:48:00,7.5,-7.2,30.02,WNW,297,10.5,11.3,50,0.00,,SKC,0.00,VWS V14.01,2013-01-13 06:48:00,
2013-01-13 00:54:00,7.5,-7.2,30.02,NW,313,13.7,14.9,50,0.00,,SKC,0.00,VWS V14.01,2013-01-13 06:54:00,
2013-01-13 00:59:00,7.7,-7.1,30.02,North,0,4.8,4.8,50,0.00,,SKC,0.00,VWS V14.01,2013-01-13 06:59:00,
2013-01-13 01:04:00,7.7,-7.1,30.02,NNW,338,15.7,15.7,50,0.00,,SKC,0.00,VWS V14.01,2013-01-13 07:04:00,
2013-01-13 01:09:00,7.2,-7.6,30.02,North,349,11.3,13.7,50,0.00,,SKC,0.00,VWS V14.01,2013-01-13 07:09:00,
2013-01-13 01:14:00,6.8,-7.9,30.02,WSW,254,6.4,10.5,50,0.00,,SKC,0.00,VWS V14.01,2013-01-13 07:14:00,
2013-01-13 01:19:00,6.4,-8.2,30.02,WNW,300,14.9,14.9,50,0.00,,SKC,0.00,VWS V14.01,2013-01-13 07:19:00,
2013-01-13 01:24:00,6.6,-8.1,30.02,NW,325,8.9,9.7,50,0.00,,SKC,0.00,VWS V14.01,2013-01-13 07:24:00,
2013-01-13 01:30:00,6.3,-8.4,30.02,NW,321,17.3,23.8,50,0.00,,SKC,0.00,VWS V14.01,2013-01-13 07:30:00,
2013-01-13 01:36:00,6.1,-8.6,30.02,NNW,333,10.5,18.1,50,0.00,,SKC,0.00,VWS V14.01,2013-01-13 07:36:00,
2013-01-13 01:41:00,5.9,-8.7,30.02,NW,313,5.6,9.7,50,0.00,,SKC,0.00,VWS V14.01,2013-01-13 07:41:00,
2013-01-13 01:47:00,5.7,-8.9,30.02,NNW,333,11.3,14.9,50,0.00,,SKC,0.00,VWS V14.01,2013-01-13 07:47:00,
2013-01-13 01:52:00,5.5,-9.1,30.02,WNW,300,14.5,14.5,50,0.00,,SKC,0.00,VWS V14.01,2013-01-13 07:52:00,
2013-01-13 01:58:00,5.4,-9.2,30.02,WNW,282,5.6,7.2,50,0.00,,SKC,0.00,VWS V14.01,2013-01-13 07:58:00,
2013-01-13 02:04:00,5.0,-9.6,30.02,WNW,299,12.9,12.9,50,0.00,,SKC,0.00,VWS V14.01,2013-01-13 08:04:00,
2013-01-13 02:09:00,5.0,-9.6,30.02,NNW,335,10.5,14.9,50,0.00,,SKC,0.00,VWS V14.01,2013-01-13 08:09:00,
2013-01-13 02:14:00,4.8,-9.7,30.02,WNW,302,9.7,10.5,50,0.00,,SKC,0.00,VWS V14.01,2013-01-13 08:14:00,
2013-01-13 02:19:00,5.0,-9.6,30.05,North,2,6.4,11.3,50,0.00,,SKC,0.00,VWS V14.01,2013-01-13 08:19:00,
2013-01-13 02:25:00,4.6,-9.9,30.05,WNW,290,13.7,13.7,50,0.00,,SKC,0.00,VWS V14.01,2013-01-13 08:25:00,
2013-01-13 02:30:00,4.3,-10.2,30.05,NW,316,6.4,11.3,50,0.00,,SKC,0.00,VWS V14.01,2013-01-13 08:30:00,
2013-01-13 02:35:00,4.5,-10.1,30.05,NW,326,9.7,9.7,50,0.00,,SKC,0.00,VWS V14.01,2013-01-13 08:35:00,
2013-01-13 02:40:00,4.5,-10.1,30.05,NW,325,6.4,7.2,50,0.00,,SKC,0.00,VWS V14.01,2013-01-13 08:40:00,
2013-01-13 02:45:00,4.5,-10.1,30.05,WNW,299,8.1,10.5,50,0.00,,SKC,0.00,VWS V14.01,2013-01-13 08:45:00,
2013-01-13 02:50:00,4.5,-10.1,30.05,NW,322,9.7,11.3,50,0.00,,SKC,0.00,VWS V14.01,2013-01-13 08:50:00,
2013-01-13 02:55:00,4.5,-10.1,30.05,West,268,10.5,14.5,50,0.00,,SKC,0.00,VWS V14.01,2013-01-13 08:55:00,
2013-01-13 03:00:00,4.1,-10.4,30.05,WNW,299,14.5,14.5,50,0.00,,SKC,0.00,VWS V14.01,2013-01-13 09:00:00,
2013-01-13 03:05:00,3.9,-10.6,30.05,NW,325,6.4,9.7,50,0.00,,SKC,0.00,VWS V14.01,2013-01-13 09:05:00,
2013-01-13 03:10:00,3.7,-10.7,30.05,NW,325,7.2,13.7,50,0.00,,SKC,0.00,VWS V14.01,2013-01-13 09:10:00,
2013-01-13 03:15:00,3.4,-11.1,30.05,NW,310,7.2,11.3,50,0.00,,SKC,0.00,VWS V14.01,2013-01-13 09:15:00,
2013-01-13 03:20:00,3.2,-11.2,30.02,WNW,303,8.9,14.5,50,0.00,,SKC,0.00,VWS V14.01,2013-01-13 09:20:00,
2013-01-13 03:25:00,3.2,-11.2,30.02,NW,323,9.7,10.5,50,0.00,,SKC,0.00,VWS V14.01,2013-01-13 09:25:00,
2013-01-13 03:30:00,3.2,-11.2,30.02,North,0,10.5,11.3,50,0.00,,SKC,0.00,VWS V14.01,2013-01-13 09:30:00,
2013-01-13 03:35:00,3.2,-11.2,30.02,NNW,329,4.8,6.4,50,0.00,,SKC,0.00,VWS V14.01,2013-01-13 09:35:00,
2013-01-13 03:40:00,3.4,-11.1,30.02,NNW,340,13.7,13.7,50,0.00,,SKC,0.00,VWS V14.01,2013-01-13 09:40:00,
2013-01-13 03:45:00,3.4,-11.1,30.02,NW,318,7.2,11.3,50,0.00,,SKC,0.00,VWS V14.01,2013-01-13 09:45:00,
2013-01-13 03:50:00,3.2,-11.2,30.02,NNW,346,7.2,14.5,50,0.00,,SKC,0.00,VWS V14.01,2013-01-13 09:50:00,
2013-01-13 03:55:00,3.2,-11.2,30.02,NNE,12,9.7,14.9,50,0.00,,SKC,0.00,VWS V14.01,2013-01-13 09:55:00,
2013-01-13 04:00:00,3.2,-11.2,30.02,NW,307,14.9,14.9,50,0.00,,SKC,0.00,VWS V14.01,2013-01-13 10:00:00,
2013-01-13 04:05:00,3.4,-11.1,30.02,West,275,7.2,11.3,50,0.00,,SKC,0.00,VWS V14.01,2013-01-13 10:05:00,
2013-01-13 04:10:00,3.6,-10.9,30.02,NW,307,5.6,14.5,50,0.00,,SKC,0.00,VWS V14.01,2013-01-13 10:10:00,
2013-01-13 04:15:00,3.4,-11.1,30.02,North,0,4.8,9.7,50,0.00,,SKC,0.00,VWS V14.01,2013-01-13 10:15:00,
2013-01-13 04:20:00,3.2,-11.2,30.02,West,270,6.4,9.7,50,0.00,,SKC,0.00,VWS V14.01,2013-01-13 10:20:00,
2013-01-13 04:25:00,3.4,-11.1,30.02,WNW,303,8.9,10.5,50,0.00,,SKC,0.00,VWS V14.01,2013-01-13 10:25:00,
2013-01-13 04:30:00,3.6,-10.9,30.02,West,279,7.2,7.2,50,0.00,,SKC,0.00,VWS V14.01,2013-01-13 10:30:00,
2013-01-13 04:35:00,3.6,-10.9,30.02,NNW,333,9.7,11.3,50,0.00,,SKC,0.00,VWS V14.01,2013-01-13 10:35:00,
2013-01-13 04:40:00,3.7,-10.7,30.02,NNW,335,7.2,11.3,50,0.00,,SKC,0.00,VWS V14.01,2013-01-13 10:40:00,
2013-01-13 04:45:00,3.7,-10.7,30.02,NNW,343,7.2,10.5,50,0.00,,SKC,0.00,VWS V14.01,2013-01-13 10:45:00,
2013-01-13 04:50:00,3.7,-10.7,30.02,North,357,10.5,10.5,50,0.00,,SKC,0.00,VWS V14.01,2013-01-13 10:50:00,
2013-01-13 04:55:00,3.7,-10.7,30.02,WNW,299,9.7,9.7,50,0.00,,SKC,0.00,VWS V14.01,2013-01-13 10:55:00,
2013-01-13 05:00:00,3.9,-10.6,30.02,NW,315,6.4,11.3,50,0.00,,SKC,0.00,VWS V14.01,2013-01-13 11:00:00,
2013-01-13 05:05:00,4.1,-10.4,30.02,WNW,290,5.6,5.6,50,0.00,,SKC,0.00,VWS V14.01,2013-01-13 11:05:00,
2013-01-13 05:10:00,4.6,-9.9,30.02,WNW,301,11.3,13.7,50,0.00,,SKC,0.00,VWS V14.01,2013-01-13 11:10:00,
2013-01-13 05:15:00,4.5,-10.1,30.02,West,261,9.7,14.5,50,0.00,,SKC,0.00,VWS V14.01,2013-01-13 11:15:00,
2013-01-13 05:20:00,4.5,-10.1,30.05,NW,304,9.7,14.9,50,0.00,,SKC,0.00,VWS V14.01,2013-01-13 11:20:00,
2013-01-13 05:25:00,4.6,-9.9,30.05,West,272,7.2,13.7,50,0.00,,SKC,0.00,VWS V14.01,2013-01-13 11:25:00,
2013-01-13 05:30:00,4.8,-9.7,30.05,WNW,291,6.4,12.1,50,0.00,,SKC,0.00,VWS V14.01,2013-01-13 11:30:00,
2013-01-13 05:35:00,4.5,-10.1,30.05,North,353,11.3,11.3,50,0.00,,SKC,0.00,VWS V14.01,2013-01-13 11:35:00,
2013-01-13 05:40:00,4.3,-10.2,30.05,WNW,295,6.4,7.2,50,0.00,,SKC,0.00,VWS V14.01,2013-01-13 11:40:00,
2013-01-13 05:45:00,4.3,-10.2,30.05,WNW,284,13.7,13.7,50,0.00,,SKC,0.00,VWS V14.01,2013-01-13 11:45:00,
2013-01-13 05:50:00,4.1,-10.4,30.05,NNW,328,5.6,9.7,50,0.00,,SKC,0.00,VWS V14.01,2013-01-13 11:50:00,
2013-01-13 05:55:00,3.9,-10.6,30.05,NNW,332,6.4,8.9,50,0.00,,SKC,0.00,VWS V14.01,2013-01-13 11:55:00,
2013-01-13 06:00:00,3.9,-10.6,30.05,WNW,297,5.6,5.6,50,0.00,,SKC,0.00,VWS V14.01,2013-01-13 12:00:00,
2013-01-13 06:05:00,4.1,-10.4,30.05,North,357,8.9,9.7,50,0.00,,SKC,0.00,VWS V14.01,2013-01-13 12:05:00,
2013-01-13 06:10:00,4.1,-10.4,30.05,West,279,6.4,7.2,50,0.00,,SKC,0.00,VWS V14.01,2013-01-13 12:10:00,
2013-01-13 06:16:00,4.3,-10.2,30.05,NW,310,11.3,14.5,50,0.00,,SKC,0.00,VWS V14.01,2013-01-13 12:16:00,
2013-01-13 06:21:00,4.3,-10.2,30.08,West,278,6.4,7.2,50,0.00,,SKC,0.00,VWS V14.01,2013-01-13 12:21:00,
2013-01-13 06:26:00,4.5,-10.1,30.08,West,275,6.4,10.5,50,0.00,,SKC,0.00,VWS V14.01,2013-01-13 12:26:00,
2013-01-13 06:31:00,4.3,-10.2,30.08,NW,317,10.5,10.5,50,0.00,,SKC,0.00,VWS V14.01,2013-01-13 12:31:00,
2013-01-13 06:36:00,4.6,-9.9,30.08,WNW,289,14.9,14.9,50,0.00,,SKC,0.00,VWS V14.01,2013-01-13 12:36:00,
2013-01-13 06:41:00,4.5,-10.1,30.08,WNW,284,4.8,8.9,50,0.00,,SKC,0.00,VWS V14.01,2013-01-13 12:41:00,
2013-01-13 06:46:00,4.1,-10.4,30.08,WNW,288,6.4,7.2,50,0.00,,SKC,0.00,VWS V14.01,2013-01-13 12:46:00,
2013-01-13 06:51:00,4.1,-10.4,30.08,NW,307,6.4,10.5,50,0.00,,SKC,0.00,VWS V14.01,2013-01-13 12:51:00,
2013-01-13 06:56:00,4.3,-10.2,30.08,WNW,299,8.9,11.3,50,0.00,,SKC,0.00,VWS V14.01,2013-01-13 12:56:00,
2013-01-13 07:01:00,4.1,-10.4,30.08,WNW,301,7.2,10.5,50,0.00,,SKC,0.00,VWS V14.01,2013-01-13 13:01:00,
2013-01-13 07:06:00,3.7,-10.7,30.08,West,264,9.7,9.7,50,0.00,,SKC,0.00,VWS V14.01,2013-01-13 13:06:00,
2013-01-13 07:12:00,3.4,-11.1,30.08,North,349,5.6,5.6,50,0.00,,SKC,0.00,VWS V14.01,2013-01-13 13:12:00,
2013-01-13 07:17:00,3.0,-11.4,30.08,NNW,327,4.8,10.5,50,0.00,,SKC,0.00,VWS V14.01,2013-01-13 13:17:00,
2013-01-13 07:23:00,2.7,-11.7,30.08,NW,319,9.7,13.7,50,0.00,,SKC,0.00,VWS V14.01,2013-01-13 13:23:00,
2013-01-13 07:28:00,2.5,-11.9,30.08,NNW,338,5.6,6.4,50,0.00,,SKC,0.00,VWS V14.01,2013-01-13 13:28:00,
2013-01-13 07:33:00,2.5,-11.9,30.08,WNW,301,5.6,5.6,50,0.00,,SKC,0.00,VWS V14.01,2013-01-13 13:33:00,
2013-01-13 07:38:00,2.7,-11.7,30.08,NNW,334,7.2,11.3,50,0.00,,SKC,0.00,VWS V14.01,2013-01-13 13:38:00,
2013-01-13 07:44:00,3.0,-11.4,30.08,NNW,342,4.8,5.6,50,0.00,,SKC,0.00,VWS V14.01,2013-01-13 13:44:00,
2013-01-13 07:49:00,3.2,-11.2,30.11,West,270,8.9,8.9,50,0.00,,SKC,0.00,VWS V14.01,2013-01-13 13:49:00,
2013-01-13 07:54:00,3.9,-10.6,30.11,NNW,329,4.8,14.5,50,0.00,,SKC,0.00,VWS V14.01,2013-01-13 13:54:00,
2013-01-13 07:59:00,3.6,-10.9,30.11,NNW,332,9.7,9.7,50,0.00,,SKC,0.00,VWS V14.01,2013-01-13 13:59:00,
2013-01-13 08:05:00,3.2,-11.2,30.11,WNW,285,10.5,10.5,50,0.00,,SKC,0.00,VWS V14.01,2013-01-13 14:05:00,
2013-01-13 08:10:00,3.7,-10.7,30.11,WNW,297,11.3,11.3,50,0.00,,SKC,0.00,VWS V14.01,2013-01-13 14:10:00,
2013-01-13 08:15:00,3.7,-10.7,30.11,WNW,288,7.2,9.7,50,0.00,,SKC,0.00,VWS V14.01,2013-01-13 14:15:00,
2013-01-13 08:21:00,3.9,-10.6,30.11,WSW,237,8.9,14.9,50,0.00,,SKC,0.00,VWS V14.01,2013-01-13 14:21:00,
2013-01-13 08:26:00,4.1,-10.4,30.11,West,268,11.3,11.3,50,0.00,,SKC,0.00,VWS V14.01,2013-01-13 14:26:00,
2013-01-13 08:31:00,4.1,-10.4,30.11,WNW,303,5.6,7.2,50,0.00,,SKC,0.00,VWS V14.01,2013-01-13 14:31:00,
2013-01-13 08:36:00,3.9,-10.6,30.14,West,280,5.6,7.2,50,0.00,,SKC,0.00,VWS V14.01,2013-01-13 14:36:00,
2013-01-13 08:41:00,4.3,-10.2,30.14,WNW,294,8.9,11.3,50,0.00,,SKC,0.00,VWS V14.01,2013-01-13 14:41:00,
2013-01-13 08:46:00,4.5,-10.1,30.14,WNW,292,9.7,9.7,50,0.00,,SKC,0.00,VWS V14.01,2013-01-13 14:46:00,
2013-01-13 08:51:00,4.8,-9.7,30.11,West,278,7.2,14.5,50,0.00,,SKC,0.00,VWS V14.01,2013-01-13 14:51:00,
2013-01-13 08:56:00,5.0,-9.6,30.11,West,278,8.9,8.9,50,0.00,,SKC,0.00,VWS V14.01,2013-01-13 14:56:00,
2013-01-13 09:01:00,5.2,-9.4,30.11,WNW,300,14.5,15.7,50,0.00,,SKC,0.00,VWS V14.01,2013-01-13 15:01:00,
2013-01-13 09:06:00,5.2,-9.4,30.11,WNW,288,11.3,11.3,50,0.00,,SKC,0.00,VWS V14.01,2013-01-13 15:06:00,
2013-01-13 09:11:00,5.4,-9.2,30.11,NW,312,11.3,11.3,50,0.00,,SKC,0.00,VWS V14.01,2013-01-13 15:11:00,
2013-01-13 09:16:00,5.2,-9.4,30.11,West,275,14.9,14.9,50,0.00,,SKC,0.00,VWS V14.01,2013-01-13 15:16:00,
2013-01-13 09:21:00,5.0,-9.6,30.11,WNW,289,11.3,11.3,50,0.00,,SKC,0.00,VWS V14.01,2013-01-13 15:21:00,
2013-01-13 09:27:00,5.2,-9.4,30.11,NNW,340,14.9,14.9,50,0.00,,SKC,0.00,VWS V14.01,2013-01-13 15:27:00,
2013-01-13 09:32:00,5.4,-9.2,30.11,WNW,286,11.3,11.3,50,0.00,,SKC,0.00,VWS V14.01,2013-01-13 15:32:00,
2013-01-13 09:37:00,5.5,-9.1,30.11,WNW,291,7.2,13.7,50,0.00,,SKC,0.00,VWS V14.01,2013-01-13 15:37:00,
2013-01-13 09:42:00,5.7,-8.9,30.11,NW,322,7.2,14.5,50,0.00,,SKC,0.00,VWS V14.01,2013-01-13 15:42:00,
2013-01-13 09:47:00,5.9,-8.7,30.11,WNW,290,8.9,14.5,50,0.00,,SKC,0.00,VWS V14.01,2013-01-13 15:47:00,
2013-01-13 09:52:00,5.4,-9.2,30.11,NNW,327,7.2,7.2,50,0.00,,SKC,0.00,VWS V14.01,2013-01-13 15:52:00,
2013-01-13 09:57:00,5.5,-9.1,30.11,NNW,334,9.7,18.1,50,0.00,,SKC,0.00,VWS V14.01,2013-01-13 15:57:00,
2013-01-13 10:02:00,5.5,-9.1,30.11,WNW,286,13.7,13.7,50,0.00,,SKC,0.00,VWS V14.01,2013-01-13 16:02:00,
2013-01-13 10:07:00,6.1,-8.6,30.11,WNW,301,10.5,18.9,50,0.00,,SKC,0.00,VWS V14.01,2013-01-13 16:07:00,
2013-01-13 10:12:00,6.3,-8.4,30.11,WNW,295,9.7,14.9,50,0.00,,SKC,0.00,VWS V14.01,2013-01-13 16:12:00,
2013-01-13 10:17:00,6.1,-8.6,30.11,WNW,292,11.3,18.1,50,0.00,,SKC,0.00,VWS V14.01,2013-01-13 16:17:00,
2013-01-13 10:22:00,6.3,-8.4,30.11,NW,319,9.7,14.5,50,0.00,,SKC,0.00,VWS V14.01,2013-01-13 16:22:00,
2013-01-13 10:27:00,6.3,-8.4,30.11,NW,307,11.3,11.3,50,0.00,,SKC,0.00,VWS V14.01,2013-01-13 16:27:00,
2013-01-13 10:32:00,6.6,-8.1,30.11,NW,319,11.3,14.5,50,0.00,,SKC,0.00,VWS V14.01,2013-01-13 16:32:00,
2013-01-13 10:37:00,5.9,-8.7,30.11,North,0,4.8,9.7,50,0.00,,SKC,0.00,VWS V14.01,2013-01-13 16:37:00,
2013-01-13 10:42:00,6.4,-8.2,30.11,WSW,254,13.7,14.9,50,0.00,,SKC,0.00,VWS V14.01,2013-01-13 16:42:00,
2013-01-13 10:47:00,6.8,-7.9,30.11,NW,324,17.3,17.3,50,0.00,,SKC,0.00,VWS V14.01,2013-01-13 16:47:00,
2013-01-13 10:52:00,7.3,-7.4,30.11,West,268,10.5,14.5,50,0.00,,SKC,0.00,VWS V14.01,2013-01-13 16:52:00,
2013-01-13 10:57:00,7.3,-7.4,30.11,West,277,11.3,14.5,50,0.00,,SKC,0.00,VWS V14.01,2013-01-13 16:57:00,
2013-01-13 11:02:00,7.5,-7.2,30.11,West,268,8.9,8.9,50,0.00,,SKC,0.00,VWS V14.01,2013-01-13 17:02:00,
2013-01-13 11:07:00,8.6,-6.2,30.11,WNW,288,10.5,18.9,50,0.00,,SKC,0.00,VWS V14.01,2013-01-13 17:07:00,
2013-01-13 11:12:00,8.1,-6.7,30.11,NW,308,18.9,18.9,50,0.00,,SKC,0.00,VWS V14.01,2013-01-13 17:12:00,
2013-01-13 11:17:00,7.3,-7.4,30.11,WNW,302,6.4,8.9,50,0.00,,SKC,0.00,VWS V14.01,2013-01-13 17:17:00,
2013-01-13 11:22:00,8.4,-6.4,30.08,North,3,14.5,14.5,50,0.00,,SKC,0.00,VWS V14.01,2013-01-13 17:22:00,
2013-01-13 11:27:00,8.6,-6.2,30.08,WNW,294,15.7,18.9,50,0.00,,SKC,0.00,VWS V14.01,2013-01-13 17:27:00,
2013-01-13 11:32:00,8.8,-6.1,30.08,West,280,17.3,17.3,50,0.00,,SKC,0.00,VWS V14.01,2013-01-13 17:32:00,
2013-01-13 11:37:00,9.1,-5.7,30.08,WNW,300,5.6,7.2,50,0.00,,SKC,0.00,VWS V14.01,2013-01-13 17:37:00,
2013-01-13 11:42:00,9.1,-5.7,30.08,West,274,14.5,15.7,50,0.00,,SKC,0.00,VWS V14.01,2013-01-13 17:42:00,
2013-01-13 11:47:00,8.4,-6.4,30.08,West,278,15.7,15.7,50,0.00,,SKC,0.00,VWS V14.01,2013-01-13 17:47:00,
2013-01-13 11:52:00,8.8,-6.1,30.08,NNW,329,6.4,8.9,50,0.00,,SKC,0.00,VWS V14.01,2013-01-13 17:52:00,
2013-01-13 11:57:00,10.0,-4.9,30.08,West,268,13.7,14.9,50,0.00,,SKC,0.00,VWS V14.01,2013-01-13 17:57:00,
2013-01-13 12:02:00,10.0,-4.9,30.08,WNW,298,10.5,15.7,50,0.00,,SKC,0.00,VWS V14.01,2013-01-13 18:02:00,
2013-01-13 12:07:00,9.9,-5.1,30.08,WSW,257,18.9,18.9,50,0.00,,SKC,0.00,VWS V14.01,2013-01-13 18:07:00,
2013-01-13 12:12:00,10.8,-4.2,30.08,WNW,282,16.5,16.5,50,0.00,,SKC,0.00,VWS V14.01,2013-01-13 18:12:00,
2013-01-13 12:17:00,10.0,-4.9,30.08,NW,315,18.1,18.1,50,0.00,,SKC,0.00,VWS V14.01,2013-01-13 18:17:00,
2013-01-13 12:22:00,10.2,-4.7,30.08,West,261,14.9,14.9,50,0.00,,SKC,0.00,VWS V14.01,2013-01-13 18:22:00,
2013-01-13 12:27:00,10.9,-4.0,30.08,WSW,245,18.9,18.9,50,0.00,,SKC,0.00,VWS V14.01,2013-01-13 18:27:00,
2013-01-13 12:32:00,10.4,-4.6,30.08,West,271,12.1,14.5,50,0.00,,SKC,0.00,VWS V14.01,2013-01-13 18:32:00,
2013-01-13 12:37:00,10.2,-4.7,30.08,NNW,335,14.5,14.5,50,0.00,,SKC,0.00,VWS V14.01,2013-01-13 18:37:00,
2013-01-13 12:42:00,9.9,-5.1,30.08,WNW,288,12.1,12.1,50,0.00,,SKC,0.00,VWS V14.01,2013-01-13 18:42:00,
2013-01-13 12:47:00,9.0,-5.9,30.08,WNW,295,12.9,17.3,50,0.00,,SKC,0.00,VWS V14.01,2013-01-13 18:47:00,
2013-01-13 12:52:00,9.1,-5.7,30.08,WNW,303,11.3,11.3,50,0.00,,SKC,0.00,VWS V14.01,2013-01-13 18:52:00,
2013-01-13 12:57:00,10.2,-4.7,30.08,NNW,329,8.9,12.1,50,0.00,,SKC,0.00,VWS V14.01,2013-01-13 18:57:00,
2013-01-13 13:02:00,11.1,-3.9,30.08,WSW,243,6.4,9.7,50,0.00,,SKC,0.00,VWS V14.01,2013-01-13 19:02:00,
2013-01-13 13:07:00,11.8,-3.2,30.08,WNW,291,10.5,14.9,50,0.00,,SKC,0.00,VWS V14.01,2013-01-13 19:07:00,
2013-01-13 13:12:00,12.0,-3.0,30.08,North,353,14.5,14.5,50,0.00,,SKC,0.00,VWS V14.01,2013-01-13 19:12:00,
2013-01-13 13:18:00,10.8,-4.2,30.08,West,272,8.9,10.5,50,0.00,,SKC,0.00,VWS V14.01,2013-01-13 19:18:00,
2013-01-13 13:23:00,10.9,-4.0,30.08,North,3,5.6,11.3,50,0.00,,SKC,0.00,VWS V14.01,2013-01-13 19:23:00,
2013-01-13 13:28:00,10.6,-4.4,30.08,WNW,291,7.2,14.5,50,0.00,,SKC,0.00,VWS V14.01,2013-01-13 19:28:00,
2013-01-13 13:33:00,10.8,-4.2,30.08,WNW,295,10.5,11.3,50,0.00,,SKC,0.00,VWS V14.01,2013-01-13 19:33:00,
2013-01-13 13:38:00,10.4,-4.6,30.08,SW,236,10.5,11.3,50,0.00,,SKC,0.00,VWS V14.01,2013-01-13 19:38:00,
2013-01-13 13:43:00,10.4,-4.6,30.08,WNW,283,5.6,6.4,50,0.00,,SKC,0.00,VWS V14.01,2013-01-13 19:43:00,
2013-01-13 13:48:00,10.0,-4.9,30.08,West,278,13.7,23.8,50,0.00,,SKC,0.00,VWS V14.01,2013-01-13 19:48:00,
2013-01-13 13:53:00,10.4,-4.6,30.08,WNW,284,13.7,15.7,50,0.00,,SKC,0.00,VWS V14.01,2013-01-13 19:53:00,
2013-01-13 13:58:00,10.4,-4.6,30.08,WSW,258,16.5,18.1,50,0.00,,SKC,0.00,VWS V14.01,2013-01-13 19:58:00,
2013-01-13 14:03:00,9.7,-5.2,30.08,NNW,341,12.1,12.1,50,0.00,,SKC,0.00,VWS V14.01,2013-01-13 20:03:00,
2013-01-13 14:08:00,9.1,-5.7,30.08,West,272,9.7,13.7,50,0.00,,SKC,0.00,VWS V14.01,2013-01-13 20:08:00,
2013-01-13 14:13:00,9.0,-5.9,30.08,WNW,291,9.7,13.7,50,0.00,,SKC,0.00,VWS V14.01,2013-01-13 20:13:00,
2013-01-13 14:18:00,9.0,-5.9,30.08,West,260,11.3,14.9,50,0.00,,SKC,0.00,VWS V14.01,2013-01-13 20:18:00,
2013-01-13 14:23:00,9.7,-5.2,30.11,West,276,9.7,9.7,50,0.00,,SKC,0.00,VWS V14.01,2013-01-13 20:23:00,
2013-01-13 14:28:00,10.2,-4.7,30.11,West,273,9.7,14.5,50,0.00,,SKC,0.00,VWS V14.01,2013-01-13 20:28:00,
2013-01-13 14:33:00,10.2,-4.7,30.11,West,267,13.7,18.9,50,0.00,,SKC,0.00,VWS V14.01,2013-01-13 20:33:00,
2013-01-13 14:38:00,10.4,-4.6,30.11,WNW,289,9.7,10.5,50,0.00,,SKC,0.00,VWS V14.01,2013-01-13 20:38:00,
2013-01-13 14:43:00,10.8,-4.2,30.11,West,272,0.0,7.2,50,0.00,,SKC,0.00,VWS V14.01,2013-01-13 20:43:00,
2013-01-13 14:48:00,10.4,-4.6,30.11,WNW,293,6.4,14.9,50,0.00,,SKC,0.00,VWS V14.01,2013-01-13 20:48:00,
2013-01-13 14:53:00,10.4,-4.6,30.11,West,280,10.5,15.7,50,0.00,,SKC,0.00,VWS V14.01,2013-01-13 20:53:00,
2013-01-13 14:58:00,10.6,-4.4,30.11,WNW,299,14.9,22.1,50,0.00,,SKC,0.00,VWS V14.01,2013-01-13 20:58:00,
2013-01-13 15:03:00,10.6,-4.4,30.11,WNW,297,10.5,14.5,50,0.00,,SKC,0.00,VWS V14.01,2013-01-13 21:03:00,
2013-01-13 15:08:00,10.8,-4.2,30.11,NNW,331,9.7,11.3,50,0.00,,SKC,0.00,VWS V14.01,2013-01-13 21:08:00,
2013-01-13 15:13:00,10.4,-4.6,30.11,WNW,292,10.5,19.7,50,0.00,,SKC,0.00,VWS V14.01,2013-01-13 21:13:00,
2013-01-13 15:18:00,10.4,-4.6,30.11,WNW,290,10.5,15.7,50,0.00,,SKC,0.00,VWS V14.01,2013-01-13 21:18:00,
2013-01-13 15:23:00,10.4,-4.6,30.11,NW,304,10.5,15.7,50,0.00,,SKC,0.00,VWS V14.01,2013-01-13 21:23:00,
2013-01-13 15:28:00,10.2,-4.7,30.11,NW,304,11.3,14.5,50,0.00,,SKC,0.00,VWS V14.01,2013-01-13 21:28:00,
2013-01-13 15:33:00,10.4,-4.6,30.11,WNW,282,13.7,13.7,50,0.00,,SKC,0.00,VWS V14.01,2013-01-13 21:33:00,
2013-01-13 15:38:00,10.6,-4.4,30.14,West,276,15.7,15.7,50,0.00,,SKC,0.00,VWS V14.01,2013-01-13 21:38:00,
2013-01-13 15:43:00,10.8,-4.2,30.14,WNW,287,9.7,10.5,50,0.00,,SKC,0.00,VWS V14.01,2013-01-13 21:43:00,
2013-01-13 15:48:00,10.6,-4.4,30.14,WNW,303,15.7,18.9,50,0.00,,SKC,0.00,VWS V14.01,2013-01-13 21:48:00,
2013-01-13 15:53:00,10.4,-4.6,30.14,West,277,9.7,15.7,50,0.00,,SKC,0.00,VWS V14.01,2013-01-13 21:53:00,
2013-01-13 15:58:00,10.2,-4.7,30.14,NW,305,10.5,10.5,50,0.00,,SKC,0.00,VWS V14.01,2013-01-13 21:58:00,
2013-01-13 16:03:00,10.0,-4.9,30.14,WNW,282,6.4,6.4,50,0.00,,SKC,0.00,VWS V14.01,2013-01-13 22:03:00,
2013-01-13 16:08:00,10.0,-4.9,30.14,West,279,9.7,9.7,50,0.00,,SKC,0.00,VWS V14.01,2013-01-13 22:08:00,
2013-01-13 16:13:00,9.9,-5.1,30.14,West,270,11.3,11.3,50,0.00,,SKC,0.00,VWS V14.01,2013-01-13 22:13:00,
2013-01-13 16:18:00,9.9,-5.1,30.14,NNW,327,22.1,22.1,50,0.00,,SKC,0.00,VWS V14.01,2013-01-13 22:18:00,
2013-01-13 16:23:00,9.9,-5.1,30.14,WNW,296,11.3,14.5,50,0.00,,SKC,0.00,VWS V14.01,2013-01-13 22:23:00,
2013-01-13 16:28:00,10.0,-4.9,30.14,WNW,293,10.5,10.5,50,0.00,,SKC,0.00,VWS V14.01,2013-01-13 22:28:00,
2013-01-13 16:33:00,9.7,-5.2,30.14,West,277,11.3,11.3,50,0.00,,SKC,0.00,VWS V14.01,2013-01-13 22:33:00,
2013-01-13 16:38:00,9.5,-5.4,30.14,NW,310,6.4,6.4,50,0.00,,SKC,0.00,VWS V14.01,2013-01-13 22:38:00,
2013-01-13 16:43:00,9.5,-5.4,30.14,West,266,11.3,11.3,50,0.00,,SKC,0.00,VWS V14.01,2013-01-13 22:43:00,
2013-01-13 16:48:00,9.3,-5.6,30.14,WNW,291,15.7,18.1,50,0.00,,SKC,0.00,VWS V14.01,2013-01-13 22:48:00,
2013-01-13 16:54:00,9.1,-5.7,30.14,WNW,288,10.5,14.9,50,0.00,,SKC,0.00,VWS V14.01,2013-01-13 22:54:00,
2013-01-13 16:59:00,9.1,-5.7,30.14,West,274,13.7,13.7,50,0.00,,SKC,0.00,VWS V14.01,2013-01-13 22:59:00,
2013-01-13 17:04:00,9.1,-5.7,30.14,WNW,303,14.5,18.9,50,0.00,,SKC,0.00,VWS V14.01,2013-01-13 23:04:00,
2013-01-13 17:09:00,9.1,-5.7,30.14,WNW,298,14.9,19.7,50,0.00,,SKC,0.00,VWS V14.01,2013-01-13 23:09:00,
2013-01-13 17:14:00,9.0,-5.9,30.14,WNW,302,5.6,9.7,50,0.00,,SKC,0.00,VWS V14.01,2013-01-13 23:14:00,
2013-01-13 17:19:00,9.1,-5.7,30.14,NW,324,7.2,9.7,50,0.00,,SKC,0.00,VWS V14.01,2013-01-13 23:19:00,
2013-01-13 17:24:00,8.8,-6.1,30.14,NW,304,4.0,11.3,50,0.00,,SKC,0.00,VWS V14.01,2013-01-13 23:24:00,
2013-01-13 17:29:00,9.0,-5.9,30.14,WNW,301,5.6,9.7,50,0.00,,SKC,0.00,VWS V14.01,2013-01-13 23:29:00,
2013-01-13 17:34:00,8.8,-6.1,30.17,West,274,9.7,10.5,50,0.00,,SKC,0.00,VWS V14.01,2013-01-13 23:34:00,
2013-01-13 17:39:00,9.1,-5.7,30.17,West,273,11.3,11.3,50,0.00,,SKC,0.00,VWS V14.01,2013-01-13 23:39:00,
2013-01-13 17:44:00,8.8,-6.1,30.17,WNW,292,6.4,6.4,50,0.00,,SKC,0.00,VWS V14.01,2013-01-13 23:44:00,
2013-01-13 17:49:00,8.6,-6.2,30.17,WNW,283,15.7,15.7,50,0.00,,SKC,0.00,VWS V14.01,2013-01-13 23:49:00,
2013-01-13 17:54:00,8.6,-6.2,30.17,WNW,295,15.7,15.7,50,0.00,,SKC,0.00,VWS V14.01,2013-01-13 23:54:00,
2013-01-13 17:59:00,8.4,-6.4,30.17,West,263,9.7,9.7,50,0.00,,SKC,0.00,VWS V14.01,2013-01-13 23:59:00,
2013-01-13 18:04:00,8.4,-6.4,30.17,WNW,300,9.7,11.3,50,0.00,,SKC,0.00,VWS V14.01,2013-01-14 00:04:00,
2013-01-13 18:09:00,8.4,-6.4,30.17,WNW,293,10.5,10.5,50,0.00,,SKC,0.00,VWS V14.01,2013-01-14 00:09:00,
2013-01-13 18:14:00,8.4,-6.4,30.17,NW,306,7.2,19.7,50,0.00,,SKC,0.00,VWS V14.01,2013-01-14 00:14:00,
2013-01-13 18:19:00,8.2,-6.6,30.17,NW,311,6.4,10.5,50,0.00,,SKC,0.00,VWS V14.01,2013-01-14 00:19:00,
2013-01-13 18:24:00,8.2,-6.6,30.17,West,279,9.7,10.5,50,0.00,,SKC,0.00,VWS V14.01,2013-01-14 00:24:00,
2013-01-13 18:29:00,8.2,-6.6,30.17,WSW,257,5.6,7.2,50,0.00,,SKC,0.00,VWS V14.01,2013-01-14 00:29:00,
2013-01-13 18:34:00,8.2,-6.6,30.17,WNW,290,7.2,9.7,50,0.00,,SKC,0.00,VWS V14.01,2013-01-14 00:34:00,
2013-01-13 18:39:00,8.1,-6.7,30.17,West,261,7.2,11.3,50,0.00,,SKC,0.00,VWS V14.01,2013-01-14 00:39:00,
2013-01-13 18:44:00,8.1,-6.7,30.17,WNW,289,8.9,10.5,50,0.00,,SKC,0.00,VWS V14.01,2013-01-14 00:44:00,
2013-01-13 18:49:00,8.2,-6.6,30.17,West,281,9.7,15.7,50,0.00,,SKC,0.00,VWS V14.01,2013-01-14 00:49:00,
2013-01-13 18:54:00,8.1,-6.7,30.17,West,279,7.2,11.3,50,0.00,,SKC,0.00,VWS V14.01,2013-01-14 00:54:00,
2013-01-13 18:59:00,7.9,-6.9,30.17,WNW,299,8.9,13.7,50,0.00,,SKC,0.00,VWS V14.01,2013-01-14 00:59:00,
2013-01-13 19:04:00,7.5,-7.2,30.20,WNW,289,9.7,9.7,50,0.00,,SKC,0.00,VWS V14.01,2013-01-14 01:04:00,
2013-01-13 19:09:00,7.9,-6.9,30.20,WNW,286,7.2,11.3,50,0.00,,SKC,0.00,VWS V14.01,2013-01-14 01:09:00,
2013-01-13 19:14:00,7.9,-6.9,30.20,West,265,18.9,18.9,50,0.00,,SKC,0.00,VWS V14.01,2013-01-14 01:14:00,
2013-01-13 19:19:00,7.7,-7.1,30.20,WNW,294,7.2,11.3,50,0.00,,SKC,0.00,VWS V14.01,2013-01-14 01:19:00,
2013-01-13 19:24:00,7.7,-7.1,30.20,WNW,295,18.1,18.1,50,0.00,,SKC,0.00,VWS V14.01,2013-01-14 01:24:00,
2013-01-13 19:29:00,7.5,-7.2,30.20,WNW,300,5.6,7.2,50,0.00,,SKC,0.00,VWS V14.01,2013-01-14 01:29:00,
2013-01-13 19:34:00,7.7,-7.1,30.20,West,268,11.3,13.7,50,0.00,,SKC,0.00,VWS V14.01,2013-01-14 01:34:00,
2013-01-13 19:39:00,7.5,-7.2,30.20,WNW,298,14.9,14.9,50,0.00,,SKC,0.00,VWS V14.01,2013-01-14 01:39:00,
2013-01-13 19:44:00,7.5,-7.2,30.20,NW,310,11.3,11.3,50,0.00,,SKC,0.00,VWS V14.01,2013-01-14 01:44:00,
2013-01-13 19:49:00,7.5,-7.2,30.20,West,279,7.2,14.5,50,0.00,,SKC,0.00,VWS V14.01,2013-01-14 01:49:00,
2013-01-13 19:54:00,7.2,-7.6,30.20,NW,311,7.2,7.2,50,0.00,,SKC,0.00,VWS V14.01,2013-01-14 01:54:00,
2013-01-13 19:59:00,7.2,-7.6,30.20,NW,326,7.2,7.2,50,0.00,,SKC,0.00,VWS V14.01,2013-01-14 01:59:00,
2013-01-13 20:04:00,7.0,-7.7,30.20,West,261,10.5,10.5,50,0.00,,SKC,0.00,VWS V14.01,2013-01-14 02:04:00,
2013-01-13 20:09:00,7.0,-7.7,30.20,WNW,291,14.9,14.9,50,0.00,,SKC,0.00,VWS V14.01,2013-01-14 02:09:00,
2013-01-13 20:14:00,7.0,-7.7,30.20,West,274,10.5,10.5,50,0.00,,SKC,0.00,VWS V14.01,2013-01-14 02:14:00,
2013-01-13 20:19:00,6.8,-7.9,30.23,NNW,327,5.6,5.6,50,0.00,,SKC,0.00,VWS V14.01,2013-01-14 02:19:00,
2013-01-13 20:24:00,7.0,-7.7,30.23,NW,315,7.2,7.2,50,0.00,,SKC,0.00,VWS V14.01,2013-01-14 02:24:00,
2013-01-13 20:29:00,6.6,-8.1,30.23,NW,317,6.4,7.2,50,0.00,,SKC,0.00,VWS V14.01,2013-01-14 02:29:00,
2013-01-13 20:34:00,6.4,-8.2,30.20,WNW,291,11.3,11.3,50,0.00,,SKC,0.00,VWS V14.01,2013-01-14 02:34:00,
2013-01-13 20:39:00,6.4,-8.2,30.20,NW,311,9.7,9.7,50,0.00,,SKC,0.00,VWS V14.01,2013-01-14 02:39:00,
2013-01-13 20:44:00,6.4,-8.2,30.20,WNW,299,13.7,13.7,50,0.00,,SKC,0.00,VWS V14.01,2013-01-14 02:44:00,
2013-01-13 20:49:00,6.4,-8.2,30.20,NW,321,8.9,8.9,50,0.00,,SKC,0.00,VWS V14.01,2013-01-14 02:49:00,
2013-01-13 20:54:00,6.3,-8.4,30.20,WNW,285,6.4,8.9,50,0.00,,SKC,0.00,VWS V14.01,2013-01-14 02:54:00,
2013-01-13 20:59:00,6.4,-8.2,30.20,WNW,285,10.5,10.5,50,0.00,,SKC,0.00,VWS V14.01,2013-01-14 02:59:00,
2013-01-13 21:04:00,6.4,-8.2,30.23,NW,305,5.6,8.1,50,0.00,,SKC,0.00,VWS V14.01,2013-01-14 03:04:00,
2013-01-13 21:09:00,6.4,-8.2,30.23,WNW,283,10.5,10.5,50,0.00,,SKC,0.00,VWS V14.01,2013-01-14 03:09:00,
2013-01-13 21:14:00,6.4,-8.2,30.23,NW,314,6.4,10.5,50,0.00,,SKC,0.00,VWS V14.01,2013-01-14 03:14:00,
2013-01-13 21:19:00,6.4,-8.2,30.23,NNW,330,4.8,4.8,50,0.00,,SKC,0.00,VWS V14.01,2013-01-14 03:19:00,
2013-01-13 21:24:00,6.1,-8.6,30.23,North,353,5.6,5.6,50,0.00,,SKC,0.00,VWS V14.01,2013-01-14 03:24:00,
2013-01-13 21:29:00,6.3,-8.4,30.23,WNW,289,5.6,6.4,50,0.00,,SKC,0.00,VWS V14.01,2013-01-14 03:29:00,
2013-01-13 21:35:00,6.1,-8.6,30.23,NNW,341,7.2,7.2,50,0.00,,SKC,0.00,VWS V14.01,2013-01-14 03:35:00,
2013-01-13 21:40:00,5.9,-8.7,30.23,NNW,327,10.5,10.5,50,0.00,,SKC,0.00,VWS V14.01,2013-01-14 03:40:00,
2013-01-13 21:45:00,5.9,-8.7,30.23,NW,311,4.8,4.8,50,0.00,,SKC,0.00,VWS V14.01,2013-01-14 03:45:00,
2013-01-13 21:50:00,5.9,-8.7,30.23,NNW,329,4.0,5.6,50,0.00,,SKC,0.00,VWS V14.01,2013-01-14 03:50:00,
2013-01-13 21:55:00,5.9,-8.7,30.23,NW,318,7.2,7.2,50,0.00,,SKC,0.00,VWS V14.01,2013-01-14 03:55:00,
2013-01-13 22:00:00,6.1,-8.6,30.23,WNW,282,10.5,10.5,50,0.00,,SKC,0.00,VWS V14.01,2013-01-14 04:00:00,
2013-01-13 22:05:00,6.1,-8.6,30.23,NNW,333,5.6,7.2,50,0.00,,SKC,0.00,VWS V14.01,2013-01-14 04:05:00,
2013-01-13 22:10:00,6.1,-8.6,30.23,WNW,287,6.4,6.4,50,0.00,,SKC,0.00,VWS V14.01,2013-01-14 04:10:00,
2013-01-13 22:15:00,5.9,-8.7,30.23,WNW,287,4.8,8.9,50,0.00,,SKC,0.00,VWS V14.01,2013-01-14 04:15:00,
2013-01-13 22:20:00,5.9,-8.7,30.23,NW,312,4.8,4.8,50,0.00,,SKC,0.00,VWS V14.01,2013-01-14 04:20:00,
2013-01-13 22:25:00,5.9,-8.7,30.23,WNW,288,11.3,11.3,50,0.00,,SKC,0.00,VWS V14.01,2013-01-14 04:25:00,
2013-01-13 22:30:00,5.7,-8.9,30.23,NW,319,4.8,7.2,50,0.00,,SKC,0.00,VWS V14.01,2013-01-14 04:30:00,
2013-01-13 22:35:00,5.5,-9.1,30.23,WNW,284,4.8,6.4,50,0.00,,SKC,0.00,VWS V14.01,2013-01-14 04:35:00,
2013-01-13 22:40:00,5.5,-9.1,30.23,West,280,8.9,8.9,50,0.00,,SKC,0.00,VWS V14.01,2013-01-14 04:40:00,
2013-01-13 22:45:00,5.9,-8.7,30.23,West,271,5.6,7.2,50,0.00,,SKC,0.00,VWS V14.01,2013-01-14 04:45:00,
2013-01-13 22:50:00,5.7,-8.9,30.23,NW,310,5.6,6.4,50,0.00,,SKC,0.00,VWS V14.01,2013-01-14 04:50:00,
2013-01-13 22:55:00,5.7,-8.9,30.23,NW,306,4.0,8.9,50,0.00,,SKC,0.00,VWS V14.01,2013-01-14 04:55:00,
2013-01-13 23:00:00,5.9,-8.7,30.23,West,275,12.9,12.9,50,0.00,,SKC,0.00,VWS V14.01,2013-01-14 05:00:00,
2013-01-13 23:01:00,5.9,-8.7,30.23,WNW,294,6.4,7.2,50,0.00,,SKC,0.00,VWS V14.01,2013-01-14 05:01:00,
2013-01-13 23:04:00,5.7,-8.9,30.23,WNW,292,4.8,6.4,50,0.00,,SKC,0.00,VWS V14.01,2013-01-14 05:04:00,
2013-01-13 23:05:00,5.5,-9.1,30.23,WNW,295,5.6,9.7,50,0.00,,SKC,0.00,VWS V14.01,2013-01-14 05:05:00,
2013-01-13 23:11:00,5.5,-9.1,30.23,WNW,290,4.8,7.2,50,0.00,,SKC,0.00,VWS V14.01,2013-01-14 05:11:00,
2013-01-13 23:17:00,5.9,-8.7,30.23,NW,307,6.4,9.7,50,0.00,,SKC,0.00,VWS V14.01,2013-01-14 05:17:00,
2013-01-13 23:22:00,5.5,-9.1,30.26,North,357,4.8,10.5,50,0.00,,SKC,0.00,VWS V14.01,2013-01-14 05:22:00,
2013-01-13 23:27:00,5.9,-8.7,30.26,WNW,287,6.4,9.7,50,0.00,,SKC,0.00,VWS V14.01,2013-01-14 05:27:00,
2013-01-13 23:32:00,6.1,-8.6,30.26,West,274,9.7,10.5,50,0.00,,SKC,0.00,VWS V14.01,2013-01-14 05:32:00,
2013-01-13 23:37:00,6.1,-8.6,30.26,WNW,284,6.4,8.1,50,0.00,,SKC,0.00,VWS V14.01,2013-01-14 05:37:00,
2013-01-13 23:42:00,6.1,-8.6,30.26,WNW,283,12.1,12.1,50,0.00,,SKC,0.00,VWS V14.01,2013-01-14 05:42:00,
2013-01-13 23:47:00,6.1,-8.6,30.26,WNW,285,5.6,9.7,50,0.00,,SKC,0.00,VWS V14.01,2013-01-14 05:47:00,
2013-01-13 23:53:00,6.1,-8.6,30.26,West,281,7.2,7.2,50,0.00,,SKC,0.00,VWS V14.01,2013-01-14 05:53:00,
2013-01-13 23:59:00,6.1,-8.6,30.26,WNW,285,5.6,9.7,50,0.00,,SKC,0.00,VWS V14.01,2013-01-14 05:59:00,